sensor_id;sensor_type;location;lat;lon;timestamp;pressure;altitude;pressure_sealevel;temperature;humidity
38880;BME280;25887;30.194;-97.880;2022-07-30T00:02:07;98317.19;;;38.59;29.40
38880;BME280;25887;30.194;-97.880;2022-07-30T00:04:34;98306.50;;;38.51;29.46
38880;BME280;25887;30.194;-97.880;2022-07-30T00:07:00;98308.41;;;38.42;29.53
38880;BME280;25887;30.194;-97.880;2022-07-30T00:09:28;98310.50;;;38.32;30.11
38880;BME280;25887;30.194;-97.880;2022-07-30T00:11:54;98313.75;;;38.19;30.09
38880;BME280;25887;30.194;-97.880;2022-07-30T00:14:19;98319.16;;;38.11;30.46
38880;BME280;25887;30.194;-97.880;2022-07-30T00:16:45;98314.84;;;38.02;30.47
38880;BME280;25887;30.194;-97.880;2022-07-30T00:19:11;98320.09;;;37.95;30.09
38880;BME280;25887;30.194;-97.880;2022-07-30T00:21:37;98326.00;;;37.90;30.46
38880;BME280;25887;30.194;-97.880;2022-07-30T00:24:03;98327.50;;;37.85;30.64
38880;BME280;25887;30.194;-97.880;2022-07-30T00:26:29;98319.47;;;37.77;30.95
38880;BME280;25887;30.194;-97.880;2022-07-30T00:28:54;98319.97;;;37.72;31.16
38880;BME280;25887;30.194;-97.880;2022-07-30T00:31:20;98332.09;;;37.68;30.83
38880;BME280;25887;30.194;-97.880;2022-07-30T00:33:46;98335.44;;;37.62;30.66
38880;BME280;25887;30.194;-97.880;2022-07-30T00:36:12;98340.47;;;37.57;31.46
38880;BME280;25887;30.194;-97.880;2022-07-30T00:38:37;98336.50;;;37.53;31.66
38880;BME280;25887;30.194;-97.880;2022-07-30T00:41:03;98339.84;;;37.47;31.59
38880;BME280;25887;30.194;-97.880;2022-07-30T00:43:29;98348.41;;;37.42;31.20
38880;BME280;25887;30.194;-97.880;2022-07-30T00:45:54;98346.91;;;37.40;31.39
38880;BME280;25887;30.194;-97.880;2022-07-30T00:48:20;98350.78;;;37.37;31.62
38880;BME280;25887;30.194;-97.880;2022-07-30T00:50:46;98355.63;;;37.33;31.85
38880;BME280;25887;30.194;-97.880;2022-07-30T00:53:12;98349.75;;;37.30;31.50
38880;BME280;25887;30.194;-97.880;2022-07-30T00:55:37;98352.75;;;37.27;31.40
38880;BME280;25887;30.194;-97.880;2022-07-30T00:58:03;98356.78;;;37.23;31.89
38880;BME280;25887;30.194;-97.880;2022-07-30T01:00:29;98364.50;;;37.18;31.72
38880;BME280;25887;30.194;-97.880;2022-07-30T01:02:55;98363.16;;;37.14;31.38
38880;BME280;25887;30.194;-97.880;2022-07-30T01:05:21;98351.09;;;37.09;31.49
38880;BME280;25887;30.194;-97.880;2022-07-30T01:07:46;98358.47;;;37.07;32.04
38880;BME280;25887;30.194;-97.880;2022-07-30T01:10:13;98361.50;;;37.04;31.98
38880;BME280;25887;30.194;-97.880;2022-07-30T01:12:39;98355.63;;;37.01;31.81
38880;BME280;25887;30.194;-97.880;2022-07-30T01:15:09;98366.00;;;36.96;32.10
38880;BME280;25887;30.194;-97.880;2022-07-30T01:17:35;98358.16;;;36.94;32.05
38880;BME280;25887;30.194;-97.880;2022-07-30T01:20:04;98361.16;;;36.91;32.49
38880;BME280;25887;30.194;-97.880;2022-07-30T01:25:39;98365.47;;;36.84;32.27
38880;BME280;25887;30.194;-97.880;2022-07-30T01:28:08;98369.47;;;36.80;32.57
38880;BME280;25887;30.194;-97.880;2022-07-30T01:30:35;98372.50;;;36.77;32.38
38880;BME280;25887;30.194;-97.880;2022-07-30T01:33:03;98376.38;;;36.74;32.66
38880;BME280;25887;30.194;-97.880;2022-07-30T01:35:29;98380.19;;;36.72;32.59
38880;BME280;25887;30.194;-97.880;2022-07-30T01:37:56;98378.53;;;36.71;32.20
38880;BME280;25887;30.194;-97.880;2022-07-30T01:40:25;98375.19;;;36.69;32.82
38880;BME280;25887;30.194;-97.880;2022-07-30T01:42:51;98384.22;;;36.68;32.39
38880;BME280;25887;30.194;-97.880;2022-07-30T01:45:27;98390.59;;;36.67;32.50
38880;BME280;25887;30.194;-97.880;2022-07-30T01:47:57;98388.91;;;36.66;32.35
38880;BME280;25887;30.194;-97.880;2022-07-30T01:50:25;98391.59;;;36.66;32.72
38880;BME280;25887;30.194;-97.880;2022-07-30T01:52:53;98392.72;;;36.63;32.54
38880;BME280;25887;30.194;-97.880;2022-07-30T01:55:20;98391.41;;;36.59;32.78
38880;BME280;25887;30.194;-97.880;2022-07-30T01:57:49;98394.22;;;36.58;33.08
38880;BME280;25887;30.194;-97.880;2022-07-30T02:00:15;98399.91;;;36.54;33.17
38880;BME280;25887;30.194;-97.880;2022-07-30T02:02:41;98408.28;;;36.51;32.93
38880;BME280;25887;30.194;-97.880;2022-07-30T02:05:07;98412.09;;;36.49;33.19
38880;BME280;25887;30.194;-97.880;2022-07-30T02:10:03;98415.47;;;36.43;33.48
38880;BME280;25887;30.194;-97.880;2022-07-30T02:12:29;98407.91;;;36.38;33.35
38880;BME280;25887;30.194;-97.880;2022-07-30T02:17:48;98424.06;;;36.28;33.49
38880;BME280;25887;30.194;-97.880;2022-07-30T02:20:15;98441.25;;;36.26;33.68
38880;BME280;25887;30.194;-97.880;2022-07-30T02:22:42;98441.59;;;36.23;33.91
38880;BME280;25887;30.194;-97.880;2022-07-30T02:25:09;98446.59;;;36.18;33.81
38880;BME280;25887;30.194;-97.880;2022-07-30T02:27:38;98443.25;;;36.16;34.14
38880;BME280;25887;30.194;-97.880;2022-07-30T02:30:06;98453.28;;;36.14;33.97
38880;BME280;25887;30.194;-97.880;2022-07-30T02:32:34;98451.06;;;36.09;34.34
38880;BME280;25887;30.194;-97.880;2022-07-30T02:35:03;98454.91;;;36.07;34.28
38880;BME280;25887;30.194;-97.880;2022-07-30T02:37:34;98457.03;;;36.03;34.36
38880;BME280;25887;30.194;-97.880;2022-07-30T02:40:00;98465.41;;;36.00;34.34
38880;BME280;25887;30.194;-97.880;2022-07-30T02:42:26;98466.56;;;35.97;34.28
38880;BME280;25887;30.194;-97.880;2022-07-30T02:44:53;98468.53;;;35.95;34.31
38880;BME280;25887;30.194;-97.880;2022-07-30T02:47:21;98486.91;;;35.90;34.83
38880;BME280;25887;30.194;-97.880;2022-07-30T02:49:48;98490.84;;;35.86;34.84
38880;BME280;25887;30.194;-97.880;2022-07-30T02:52:14;98493.84;;;35.83;35.02
38880;BME280;25887;30.194;-97.880;2022-07-30T02:54:41;98498.81;;;35.78;34.99
38880;BME280;25887;30.194;-97.880;2022-07-30T02:57:07;98503.50;;;35.76;35.01
38880;BME280;25887;30.194;-97.880;2022-07-30T02:59:35;98502.13;;;35.72;34.86
38880;BME280;25887;30.194;-97.880;2022-07-30T03:02:01;98510.47;;;35.69;34.82
38880;BME280;25887;30.194;-97.880;2022-07-30T03:04:27;98513.47;;;35.66;35.16
38880;BME280;25887;30.194;-97.880;2022-07-30T03:06:54;98518.25;;;35.62;35.19
38880;BME280;25887;30.194;-97.880;2022-07-30T03:09:20;98524.94;;;35.58;35.46
38880;BME280;25887;30.194;-97.880;2022-07-30T03:11:48;98527.22;;;35.53;35.64
38880;BME280;25887;30.194;-97.880;2022-07-30T03:14:15;98529.50;;;35.48;35.57
38880;BME280;25887;30.194;-97.880;2022-07-30T03:16:42;98536.16;;;35.44;35.84
38880;BME280;25887;30.194;-97.880;2022-07-30T03:19:11;98541.91;;;35.39;35.50
38880;BME280;25887;30.194;-97.880;2022-07-30T03:21:41;98539.56;;;35.36;35.49
38880;BME280;25887;30.194;-97.880;2022-07-30T03:24:07;98541.69;;;35.33;35.95
38880;BME280;25887;30.194;-97.880;2022-07-30T03:26:33;98546.50;;;35.29;35.54
38880;BME280;25887;30.194;-97.880;2022-07-30T03:29:01;98541.75;;;35.23;35.90
38880;BME280;25887;30.194;-97.880;2022-07-30T03:31:27;98549.41;;;35.18;35.60
38880;BME280;25887;30.194;-97.880;2022-07-30T03:33:54;98554.22;;;35.14;35.85
38880;BME280;25887;30.194;-97.880;2022-07-30T03:36:20;98557.19;;;35.11;35.95
38880;BME280;25887;30.194;-97.880;2022-07-30T03:38:45;98560.31;;;35.07;36.00
38880;BME280;25887;30.194;-97.880;2022-07-30T03:41:11;98565.78;;;35.05;36.06
38880;BME280;25887;30.194;-97.880;2022-07-30T03:43:38;98568.91;;;35.01;36.19
38880;BME280;25887;30.194;-97.880;2022-07-30T03:46:04;98576.53;;;34.96;36.42
38880;BME280;25887;30.194;-97.880;2022-07-30T03:48:32;98577.81;;;34.92;36.04
38880;BME280;25887;30.194;-97.880;2022-07-30T03:50:58;98582.72;;;34.86;36.08
38880;BME280;25887;30.194;-97.880;2022-07-30T03:53:25;98589.22;;;34.84;36.20
38880;BME280;25887;30.194;-97.880;2022-07-30T03:55:51;98594.19;;;34.79;36.95
38880;BME280;25887;30.194;-97.880;2022-07-30T03:58:18;98597.44;;;34.73;36.79
38880;BME280;25887;30.194;-97.880;2022-07-30T04:00:46;98608.53;;;34.68;36.66
38880;BME280;25887;30.194;-97.880;2022-07-30T04:03:12;98609.00;;;34.63;36.77
38880;BME280;25887;30.194;-97.880;2022-07-30T04:05:39;98605.91;;;34.58;37.02
38880;BME280;25887;30.194;-97.880;2022-07-30T04:08:05;98611.81;;;34.52;37.19
38880;BME280;25887;30.194;-97.880;2022-07-30T04:10:31;98618.31;;;34.50;37.06
38880;BME280;25887;30.194;-97.880;2022-07-30T04:12:57;98615.38;;;34.43;37.02
38880;BME280;25887;30.194;-97.880;2022-07-30T04:15:24;98623.91;;;34.37;37.18
38880;BME280;25887;30.194;-97.880;2022-07-30T04:17:50;98615.50;;;34.32;37.55
38880;BME280;25887;30.194;-97.880;2022-07-30T04:20:19;98611.31;;;34.29;37.11
38880;BME280;25887;30.194;-97.880;2022-07-30T04:22:46;98611.59;;;34.26;37.04
38880;BME280;25887;30.194;-97.880;2022-07-30T04:25:12;98618.91;;;34.24;37.31
38880;BME280;25887;30.194;-97.880;2022-07-30T04:27:39;98621.84;;;34.21;37.45
38880;BME280;25887;30.194;-97.880;2022-07-30T04:30:05;98619.47;;;34.18;37.35
38880;BME280;25887;30.194;-97.880;2022-07-30T04:32:31;98619.63;;;34.17;37.40
38880;BME280;25887;30.194;-97.880;2022-07-30T04:34:57;98629.72;;;34.13;37.37
38880;BME280;25887;30.194;-97.880;2022-07-30T04:37:24;98638.03;;;34.10;37.28
38880;BME280;25887;30.194;-97.880;2022-07-30T04:39:50;98638.44;;;34.05;37.08
38880;BME280;25887;30.194;-97.880;2022-07-30T04:42:19;98639.56;;;34.03;37.51
38880;BME280;25887;30.194;-97.880;2022-07-30T04:44:45;98640.00;;;33.98;37.46
38880;BME280;25887;30.194;-97.880;2022-07-30T04:47:11;98642.13;;;33.95;37.09
38880;BME280;25887;30.194;-97.880;2022-07-30T04:49:37;98650.53;;;33.90;37.47
38880;BME280;25887;30.194;-97.880;2022-07-30T04:52:03;98654.53;;;33.85;37.21
38880;BME280;25887;30.194;-97.880;2022-07-30T04:57:11;98662.13;;;33.79;37.18
38880;BME280;25887;30.194;-97.880;2022-07-30T04:59:38;98667.72;;;33.76;37.69
38880;BME280;25887;30.194;-97.880;2022-07-30T05:02:05;98661.72;;;33.74;37.19
38880;BME280;25887;30.194;-97.880;2022-07-30T05:04:32;98659.34;;;33.71;37.29
38880;BME280;25887;30.194;-97.880;2022-07-30T05:06:59;98672.66;;;33.71;37.21
38880;BME280;25887;30.194;-97.880;2022-07-30T05:09:25;98680.91;;;33.68;37.64
38880;BME280;25887;30.194;-97.880;2022-07-30T05:11:51;98675.03;;;33.65;37.86
38880;BME280;25887;30.194;-97.880;2022-07-30T05:14:17;98685.94;;;33.62;37.75
38880;BME280;25887;30.194;-97.880;2022-07-30T05:16:43;98676.41;;;33.59;37.33
38880;BME280;25887;30.194;-97.880;2022-07-30T05:19:09;98685.69;;;33.55;37.42
38880;BME280;25887;30.194;-97.880;2022-07-30T05:21:35;98689.59;;;33.51;37.54
38880;BME280;25887;30.194;-97.880;2022-07-30T05:24:01;98686.47;;;33.46;37.92
38880;BME280;25887;30.194;-97.880;2022-07-30T05:26:26;98691.81;;;33.46;37.93
38880;BME280;25887;30.194;-97.880;2022-07-30T05:28:52;98686.78;;;33.43;37.97
38880;BME280;25887;30.194;-97.880;2022-07-30T05:31:18;98688.75;;;33.41;37.82
38880;BME280;25887;30.194;-97.880;2022-07-30T05:33:43;98683.66;;;33.38;37.87
38880;BME280;25887;30.194;-97.880;2022-07-30T05:36:09;98677.91;;;33.33;37.90
38880;BME280;25887;30.194;-97.880;2022-07-30T05:38:35;98683.63;;;33.28;38.04
38880;BME280;25887;30.194;-97.880;2022-07-30T05:41:01;98693.81;;;33.23;38.48
38880;BME280;25887;30.194;-97.880;2022-07-30T05:43:26;98685.41;;;33.18;38.13
38880;BME280;25887;30.194;-97.880;2022-07-30T05:45:52;98691.13;;;33.13;38.13
38880;BME280;25887;30.194;-97.880;2022-07-30T05:48:18;98695.91;;;33.10;38.25
38880;BME280;25887;30.194;-97.880;2022-07-30T05:50:44;98697.97;;;33.06;38.91
38880;BME280;25887;30.194;-97.880;2022-07-30T05:53:09;98699.22;;;33.02;38.27
38880;BME280;25887;30.194;-97.880;2022-07-30T06:05:03;98690.75;;;32.87;38.54
38880;BME280;25887;30.194;-97.880;2022-07-30T06:07:34;98689.22;;;32.85;39.16
38880;BME280;25887;30.194;-97.880;2022-07-30T06:12:56;98697.41;;;32.82;38.87
38880;BME280;25887;30.194;-97.880;2022-07-30T06:15:31;98693.91;;;32.81;39.24
38880;BME280;25887;30.194;-97.880;2022-07-30T06:17:57;98686.91;;;32.80;38.74
38880;BME280;25887;30.194;-97.880;2022-07-30T06:20:23;98690.69;;;32.78;39.20
38880;BME280;25887;30.194;-97.880;2022-07-30T06:22:48;98687.28;;;32.76;39.33
38880;BME280;25887;30.194;-97.880;2022-07-30T06:25:14;98689.25;;;32.74;39.11
38880;BME280;25887;30.194;-97.880;2022-07-30T06:27:53;98686.03;;;32.70;39.50
38880;BME280;25887;30.194;-97.880;2022-07-30T06:30:19;98676.59;;;32.66;39.23
38880;BME280;25887;30.194;-97.880;2022-07-30T06:32:46;98685.72;;;32.63;39.69
38880;BME280;25887;30.194;-97.880;2022-07-30T06:35:12;98677.97;;;32.60;39.15
38880;BME280;25887;30.194;-97.880;2022-07-30T06:37:38;98689.72;;;32.58;39.18
38880;BME280;25887;30.194;-97.880;2022-07-30T06:40:04;98680.22;;;32.55;39.30
38880;BME280;25887;30.194;-97.880;2022-07-30T06:42:29;98688.31;;;32.54;39.30
38880;BME280;25887;30.194;-97.880;2022-07-30T06:44:55;98688.44;;;32.52;39.75
38880;BME280;25887;30.194;-97.880;2022-07-30T06:47:30;98679.03;;;32.48;39.60
38880;BME280;25887;30.194;-97.880;2022-07-30T06:50:04;98681.25;;;32.43;40.07
38880;BME280;25887;30.194;-97.880;2022-07-30T06:52:43;98674.38;;;32.40;39.80
38880;BME280;25887;30.194;-97.880;2022-07-30T06:55:09;98665.78;;;32.37;39.61
38880;BME280;25887;30.194;-97.880;2022-07-30T06:57:35;98673.22;;;32.33;39.96
38880;BME280;25887;30.194;-97.880;2022-07-30T07:00:01;98671.63;;;32.31;39.94
38880;BME280;25887;30.194;-97.880;2022-07-30T07:02:27;98670.06;;;32.28;40.27
38880;BME280;25887;30.194;-97.880;2022-07-30T07:04:52;98665.84;;;32.26;39.99
38880;BME280;25887;30.194;-97.880;2022-07-30T07:10:21;98669.00;;;32.20;40.06
38880;BME280;25887;30.194;-97.880;2022-07-30T07:12:47;98675.44;;;32.17;40.36
38880;BME280;25887;30.194;-97.880;2022-07-30T07:15:13;98671.25;;;32.14;40.35
38880;BME280;25887;30.194;-97.880;2022-07-30T07:17:39;98673.16;;;32.12;40.36
38880;BME280;25887;30.194;-97.880;2022-07-30T07:20:06;98676.78;;;32.11;40.70
38880;BME280;25887;30.194;-97.880;2022-07-30T07:22:32;98672.72;;;32.07;40.86
38880;BME280;25887;30.194;-97.880;2022-07-30T07:24:57;98668.63;;;32.03;41.07
38880;BME280;25887;30.194;-97.880;2022-07-30T07:27:23;98674.06;;;32.02;40.96
38880;BME280;25887;30.194;-97.880;2022-07-30T07:29:49;98661.88;;;31.99;41.14
38880;BME280;25887;30.194;-97.880;2022-07-30T07:32:14;98659.34;;;31.98;41.00
38880;BME280;25887;30.194;-97.880;2022-07-30T07:34:40;98655.13;;;31.95;41.21
38880;BME280;25887;30.194;-97.880;2022-07-30T07:37:06;98656.38;;;31.91;41.33
38880;BME280;25887;30.194;-97.880;2022-07-30T07:39:47;98647.66;;;31.89;41.12
38880;BME280;25887;30.194;-97.880;2022-07-30T07:42:40;98656.03;;;31.84;41.71
38880;BME280;25887;30.194;-97.880;2022-07-30T07:45:06;98659.75;;;31.82;41.61
38880;BME280;25887;30.194;-97.880;2022-07-30T07:47:41;98665.22;;;31.80;41.78
38880;BME280;25887;30.194;-97.880;2022-07-30T07:50:07;98654.84;;;31.77;41.67
38880;BME280;25887;30.194;-97.880;2022-07-30T07:52:33;98657.72;;;31.74;41.83
38880;BME280;25887;30.194;-97.880;2022-07-30T07:55:16;98651.94;;;31.69;42.19
38880;BME280;25887;30.194;-97.880;2022-07-30T07:57:43;98650.38;;;31.67;42.00
38880;BME280;25887;30.194;-97.880;2022-07-30T08:00:10;98642.81;;;31.62;42.05
38880;BME280;25887;30.194;-97.880;2022-07-30T08:02:36;98639.44;;;31.60;42.12
38880;BME280;25887;30.194;-97.880;2022-07-30T08:05:03;98640.50;;;31.57;42.56
38880;BME280;25887;30.194;-97.880;2022-07-30T08:07:29;98638.13;;;31.54;42.44
38880;BME280;25887;30.194;-97.880;2022-07-30T08:09:55;98643.78;;;31.50;42.53
38880;BME280;25887;30.194;-97.880;2022-07-30T08:12:23;98647.56;;;31.47;42.76
38880;BME280;25887;30.194;-97.880;2022-07-30T08:14:50;98651.31;;;31.45;42.52
38880;BME280;25887;30.194;-97.880;2022-07-30T08:17:15;98673.63;;;31.42;42.66
38880;BME280;25887;30.194;-97.880;2022-07-30T08:19:41;98671.94;;;31.41;42.60
38880;BME280;25887;30.194;-97.880;2022-07-30T08:22:07;98676.41;;;31.41;42.58
38880;BME280;25887;30.194;-97.880;2022-07-30T08:24:33;98675.56;;;31.40;42.70
38880;BME280;25887;30.194;-97.880;2022-07-30T08:26:59;98672.91;;;31.40;42.70
38880;BME280;25887;30.194;-97.880;2022-07-30T08:29:24;98680.88;;;31.40;42.89
38880;BME280;25887;30.194;-97.880;2022-07-30T08:31:50;98673.03;;;31.39;42.94
38880;BME280;25887;30.194;-97.880;2022-07-30T08:34:25;98675.84;;;31.37;42.94
38880;BME280;25887;30.194;-97.880;2022-07-30T08:36:50;98675.00;;;31.37;42.80
38880;BME280;25887;30.194;-97.880;2022-07-30T08:39:16;98684.75;;;31.36;42.87
38880;BME280;25887;30.194;-97.880;2022-07-30T08:41:42;98677.75;;;31.35;42.84
38880;BME280;25887;30.194;-97.880;2022-07-30T08:44:10;98681.38;;;31.34;43.03
38880;BME280;25887;30.194;-97.880;2022-07-30T08:46:40;98687.66;;;31.33;42.98
38880;BME280;25887;30.194;-97.880;2022-07-30T08:49:06;98674.63;;;31.30;43.04
38880;BME280;25887;30.194;-97.880;2022-07-30T08:51:35;98681.84;;;31.28;43.14
38880;BME280;25887;30.194;-97.880;2022-07-30T08:54:02;98675.84;;;31.26;43.15
38880;BME280;25887;30.194;-97.880;2022-07-30T08:56:28;98675.97;;;31.24;43.02
38880;BME280;25887;30.194;-97.880;2022-07-30T08:58:54;98676.81;;;31.25;43.28
38880;BME280;25887;30.194;-97.880;2022-07-30T09:01:20;98676.09;;;31.23;43.38
38880;BME280;25887;30.194;-97.880;2022-07-30T09:03:46;98679.72;;;31.22;43.34
38880;BME280;25887;30.194;-97.880;2022-07-30T09:06:12;98685.88;;;31.22;43.23
38880;BME280;25887;30.194;-97.880;2022-07-30T09:08:38;98685.97;;;31.21;43.28
38880;BME280;25887;30.194;-97.880;2022-07-30T09:11:03;98693.06;;;31.20;43.41
38880;BME280;25887;30.194;-97.880;2022-07-30T09:13:33;98697.53;;;31.20;43.21
38880;BME280;25887;30.194;-97.880;2022-07-30T09:16:00;98703.81;;;31.19;43.33
38880;BME280;25887;30.194;-97.880;2022-07-30T09:18:26;98701.28;;;31.17;43.34
38880;BME280;25887;30.194;-97.880;2022-07-30T09:20:52;98716.63;;;31.14;43.57
38880;BME280;25887;30.194;-97.880;2022-07-30T09:23:18;98717.47;;;31.14;43.81
38880;BME280;25887;30.194;-97.880;2022-07-30T09:25:45;98729.03;;;31.13;43.52
38880;BME280;25887;30.194;-97.880;2022-07-30T09:28:11;98728.16;;;31.13;43.53
38880;BME280;25887;30.194;-97.880;2022-07-30T09:30:44;98730.94;;;31.11;43.46
38880;BME280;25887;30.194;-97.880;2022-07-30T09:33:11;98731.06;;;31.10;43.64
38880;BME280;25887;30.194;-97.880;2022-07-30T09:35:37;98726.88;;;31.07;43.85
38880;BME280;25887;30.194;-97.880;2022-07-30T09:38:03;98727.00;;;31.05;43.86
38880;BME280;25887;30.194;-97.880;2022-07-30T09:40:50;98730.72;;;31.03;43.91
38880;BME280;25887;30.194;-97.880;2022-07-30T09:43:16;98735.19;;;31.02;43.82
38880;BME280;25887;30.194;-97.880;2022-07-30T09:45:52;98735.44;;;30.99;43.93
38880;BME280;25887;30.194;-97.880;2022-07-30T09:48:22;98742.78;;;30.96;43.87
38880;BME280;25887;30.194;-97.880;2022-07-30T09:50:54;98738.56;;;30.93;44.06
38880;BME280;25887;30.194;-97.880;2022-07-30T09:53:20;98744.81;;;30.92;44.00
38880;BME280;25887;30.194;-97.880;2022-07-30T09:55:49;98752.91;;;30.91;44.21
38880;BME280;25887;30.194;-97.880;2022-07-30T09:58:15;98738.06;;;30.88;44.29
38880;BME280;25887;30.194;-97.880;2022-07-30T10:00:41;98741.69;;;30.87;44.04
38880;BME280;25887;30.194;-97.880;2022-07-30T10:03:15;98734.94;;;30.83;44.27
38880;BME280;25887;30.194;-97.880;2022-07-30T10:08:16;98736.84;;;30.81;44.18
38880;BME280;25887;30.194;-97.880;2022-07-30T10:10:43;98736.97;;;30.79;44.08
38880;BME280;25887;30.194;-97.880;2022-07-30T10:13:10;98734.44;;;30.78;44.33
38880;BME280;25887;30.194;-97.880;2022-07-30T10:15:37;98739.03;;;30.76;44.36
38880;BME280;25887;30.194;-97.880;2022-07-30T10:18:04;98737.34;;;30.75;44.42
38880;BME280;25887;30.194;-97.880;2022-07-30T10:20:30;98739.25;;;30.73;44.44
38880;BME280;25887;30.194;-97.880;2022-07-30T10:22:56;98742.13;;;30.70;44.47
38880;BME280;25887;30.194;-97.880;2022-07-30T10:25:23;98738.78;;;30.68;44.51
38880;BME280;25887;30.194;-97.880;2022-07-30T10:27:50;98753.94;;;30.66;44.80
38880;BME280;25887;30.194;-97.880;2022-07-30T10:30:15;98745.22;;;30.64;44.58
38880;BME280;25887;30.194;-97.880;2022-07-30T10:32:42;98748.13;;;30.61;44.87
38880;BME280;25887;30.194;-97.880;2022-07-30T10:35:08;98750.16;;;30.57;44.45
38880;BME280;25887;30.194;-97.880;2022-07-30T10:37:34;98752.06;;;30.55;44.71
38880;BME280;25887;30.194;-97.880;2022-07-30T10:40:09;98754.00;;;30.53;44.66
38880;BME280;25887;30.194;-97.880;2022-07-30T10:48:08;98760.84;;;30.44;44.79
38880;BME280;25887;30.194;-97.880;2022-07-30T10:50:47;98764.56;;;30.42;44.79
38880;BME280;25887;30.194;-97.880;2022-07-30T10:53:30;98763.72;;;30.41;44.86
38880;BME280;25887;30.194;-97.880;2022-07-30T11:02:12;98758.16;;;30.33;45.03
38880;BME280;25887;30.194;-97.880;2022-07-30T11:04:16;98762.00;;;30.29;45.18
38880;BME280;25887;30.194;-97.880;2022-07-30T11:06:43;98759.47;;;30.28;45.51
38880;BME280;25887;30.194;-97.880;2022-07-30T11:11:53;98765.13;;;30.23;45.11
38880;BME280;25887;30.194;-97.880;2022-07-30T11:14:18;98762.59;;;30.21;45.46
38880;BME280;25887;30.194;-97.880;2022-07-30T11:21:42;98764.97;;;30.13;45.35
38880;BME280;25887;30.194;-97.880;2022-07-30T11:26:53;98768.88;;;30.08;45.70
38880;BME280;25887;30.194;-97.880;2022-07-30T11:34:48;98777.50;;;29.99;45.63
38880;BME280;25887;30.194;-97.880;2022-07-30T11:37:14;98784.72;;;29.96;45.85
38880;BME280;25887;30.194;-97.880;2022-07-30T11:42:36;98797.44;;;29.91;45.98
38880;BME280;25887;30.194;-97.880;2022-07-30T11:47:44;98799.56;;;29.86;45.98
38880;BME280;25887;30.194;-97.880;2022-07-30T11:53:01;98810.50;;;29.82;45.96
38880;BME280;25887;30.194;-97.880;2022-07-30T11:56:13;98810.72;;;29.79;46.21
38880;BME280;25887;30.194;-97.880;2022-07-30T11:59:03;98816.13;;;29.77;45.90
38880;BME280;25887;30.194;-97.880;2022-07-30T12:04:41;98819.97;;;29.73;46.04
38880;BME280;25887;30.194;-97.880;2022-07-30T12:07:07;98825.34;;;29.72;46.01
38880;BME280;25887;30.194;-97.880;2022-07-30T12:09:33;98827.28;;;29.69;45.94
38880;BME280;25887;30.194;-97.880;2022-07-30T12:11:59;98829.06;;;29.69;46.33
38880;BME280;25887;30.194;-97.880;2022-07-30T12:14:25;98838.94;;;29.67;46.35
38880;BME280;25887;30.194;-97.880;2022-07-30T12:16:51;98832.81;;;29.66;46.32
38880;BME280;25887;30.194;-97.880;2022-07-30T12:19:17;98837.25;;;29.66;46.48
38880;BME280;25887;30.194;-97.880;2022-07-30T12:21:43;98842.56;;;29.66;46.28
38880;BME280;25887;30.194;-97.880;2022-07-30T12:24:09;98840.75;;;29.66;46.60
38880;BME280;25887;30.194;-97.880;2022-07-30T12:26:35;98839.06;;;29.65;46.22
38880;BME280;25887;30.194;-97.880;2022-07-30T12:29:05;98842.56;;;29.66;46.29
38880;BME280;25887;30.194;-97.880;2022-07-30T12:31:31;98843.59;;;29.63;46.64
38880;BME280;25887;30.194;-97.880;2022-07-30T12:33:57;98843.47;;;29.65;46.33
38880;BME280;25887;30.194;-97.880;2022-07-30T12:36:26;98840.94;;;29.63;46.37
38880;BME280;25887;30.194;-97.880;2022-07-30T12:38:54;98839.97;;;29.64;46.69
38880;BME280;25887;30.194;-97.880;2022-07-30T12:41:22;98836.50;;;29.64;46.49
38880;BME280;25887;30.194;-97.880;2022-07-30T12:43:49;98833.84;;;29.64;46.61
38880;BME280;25887;30.194;-97.880;2022-07-30T12:46:25;98840.94;;;29.63;46.51
38880;BME280;25887;30.194;-97.880;2022-07-30T12:49:01;98839.13;;;29.64;46.56
38880;BME280;25887;30.194;-97.880;2022-07-30T12:51:34;98848.34;;;29.71;46.69
38880;BME280;25887;30.194;-97.880;2022-07-30T12:54:12;98842.38;;;29.80;46.48
38880;BME280;25887;30.194;-97.880;2022-07-30T12:56:38;98842.06;;;29.85;46.57
38880;BME280;25887;30.194;-97.880;2022-07-30T12:59:18;98845.88;;;29.93;46.83
38880;BME280;25887;30.194;-97.880;2022-07-30T13:01:44;98845.19;;;30.03;46.60
38880;BME280;25887;30.194;-97.880;2022-07-30T13:04:11;98858.56;;;30.14;47.05
38880;BME280;25887;30.194;-97.880;2022-07-30T13:06:37;98855.50;;;30.31;46.91
38880;BME280;25887;30.194;-97.880;2022-07-30T13:09:04;98851.06;;;30.32;46.80
38880;BME280;25887;30.194;-97.880;2022-07-30T13:14:39;98848.72;;;30.27;46.95
38880;BME280;25887;30.194;-97.880;2022-07-30T13:17:05;98854.03;;;30.27;47.06
38880;BME280;25887;30.194;-97.880;2022-07-30T13:19:33;98865.41;;;30.29;47.06
38880;BME280;25887;30.194;-97.880;2022-07-30T13:21:59;98864.44;;;30.30;47.44
38880;BME280;25887;30.194;-97.880;2022-07-30T13:24:25;98876.72;;;30.31;47.15
38880;BME280;25887;30.194;-97.880;2022-07-30T13:26:51;98880.09;;;30.33;47.24
38880;BME280;25887;30.194;-97.880;2022-07-30T13:29:17;98878.22;;;30.35;47.26
38880;BME280;25887;30.194;-97.880;2022-07-30T13:31:43;98886.88;;;30.37;47.33
38880;BME280;25887;30.194;-97.880;2022-07-30T13:34:09;98891.22;;;30.38;47.33
38880;BME280;25887;30.194;-97.880;2022-07-30T13:36:56;98886.78;;;30.39;47.03
38880;BME280;25887;30.194;-97.880;2022-07-30T13:39:22;98897.13;;;30.42;47.17
38880;BME280;25887;30.194;-97.880;2022-07-30T13:41:48;98890.91;;;30.43;47.03
38880;BME280;25887;30.194;-97.880;2022-07-30T13:44:13;98885.38;;;30.46;47.16
38880;BME280;25887;30.194;-97.880;2022-07-30T13:46:39;98883.31;;;30.49;47.05
38880;BME280;25887;30.194;-97.880;2022-07-30T13:49:05;98889.38;;;30.51;47.29
38880;BME280;25887;30.194;-97.880;2022-07-30T13:51:31;98887.34;;;30.55;46.99
38880;BME280;25887;30.194;-97.880;2022-07-30T13:53:56;98891.56;;;30.58;47.02